sensor_id;sensor_type;location;lat;lon;timestamp;pressure;altitude;pressure_sealevel;temperature;humidity
40592;BME280;26301;42.832;23.918;2022-08-20T00:00:19;92947.06;;;18.81;72.75
40592;BME280;26301;42.832;23.918;2022-08-20T00:02:51;92964.63;;;18.94;72.47
40592;BME280;26301;42.832;23.918;2022-08-20T00:05:31;92968.81;;;18.95;72.57
40592;BME280;26301;42.832;23.918;2022-08-20T00:07:57;92965.97;;;18.92;72.93
40592;BME280;26301;42.832;23.918;2022-08-20T00:10:25;92959.19;;;18.91;73.14
40592;BME280;26301;42.832;23.918;2022-08-20T00:12:51;92966.75;;;18.92;73.48
40592;BME280;26301;42.832;23.918;2022-08-20T00:15:20;92897.41;;;18.48;73.34
40592;BME280;26301;42.832;23.918;2022-08-20T00:17:50;92968.19;;;18.85;73.49
40592;BME280;26301;42.832;23.918;2022-08-20T00:20:19;92970.91;;;18.80;73.75
40592;BME280;26301;42.832;23.918;2022-08-20T00:22:46;92947.22;;;18.71;73.88
40592;BME280;26301;42.832;23.918;2022-08-20T00:25:12;92958.59;;;18.80;73.79
40592;BME280;26301;42.832;23.918;2022-08-20T00:27:38;92951.31;;;18.77;74.17
40592;BME280;26301;42.832;23.918;2022-08-20T00:30:06;92933.47;;;18.65;73.77
40592;BME280;26301;42.832;23.918;2022-08-20T00:32:51;92934.25;;;18.66;73.50
40592;BME280;26301;42.832;23.918;2022-08-20T00:35:22;92933.75;;;18.64;73.75
40592;BME280;26301;42.832;23.918;2022-08-20T00:37:49;92931.34;;;18.67;73.60
40592;BME280;26301;42.832;23.918;2022-08-20T00:40:19;92949.69;;;18.81;73.73
40592;BME280;26301;42.832;23.918;2022-08-20T00:42:54;92923.78;;;18.66;73.90
40592;BME280;26301;42.832;23.918;2022-08-20T00:45:24;92923.69;;;18.71;73.65
40592;BME280;26301;42.832;23.918;2022-08-20T00:47:51;92923.22;;;18.69;73.78
40592;BME280;26301;42.832;23.918;2022-08-20T00:50:22;92936.63;;;18.81;74.02
40592;BME280;26301;42.832;23.918;2022-08-20T00:52:50;92931.97;;;18.78;73.82
40592;BME280;26301;42.832;23.918;2022-08-20T00:55:22;92928.63;;;18.72;74.41
40592;BME280;26301;42.832;23.918;2022-08-20T00:57:52;92912.84;;;18.64;74.43
40592;BME280;26301;42.832;23.918;2022-08-20T01:00:32;92935.84;;;18.81;73.83
40592;BME280;26301;42.832;23.918;2022-08-20T01:02:59;92913.31;;;18.66;73.72
40592;BME280;26301;42.832;23.918;2022-08-20T01:05:27;92928.56;;;18.78;73.77
40592;BME280;26301;42.832;23.918;2022-08-20T01:07:54;92933.50;;;18.79;73.92
40592;BME280;26301;42.832;23.918;2022-08-20T01:10:24;92912.25;;;18.67;74.04
40592;BME280;26301;42.832;23.918;2022-08-20T01:12:53;92933.00;;;18.77;74.12
40592;BME280;26301;42.832;23.918;2022-08-20T01:15:21;92920.28;;;18.70;74.04
40592;BME280;26301;42.832;23.918;2022-08-20T01:17:52;92906.91;;;18.58;74.24
40592;BME280;26301;42.832;23.918;2022-08-20T01:20:23;92911.09;;;18.59;74.45
40592;BME280;26301;42.832;23.918;2022-08-20T01:23:13;92922.91;;;18.70;74.41
40592;BME280;26301;42.832;23.918;2022-08-20T01:26:07;92923.78;;;18.66;74.84
40592;BME280;26301;42.832;23.918;2022-08-20T01:28:44;92920.69;;;18.64;74.78
40592;BME280;26301;42.832;23.918;2022-08-20T01:31:14;92921.25;;;18.61;74.82
40592;BME280;26301;42.832;23.918;2022-08-20T01:33:41;92900.31;;;18.47;74.94
40592;BME280;26301;42.832;23.918;2022-08-20T01:36:07;92895.88;;;18.47;75.19
40592;BME280;26301;42.832;23.918;2022-08-20T01:38:35;92918.66;;;18.61;75.00
40592;BME280;26301;42.832;23.918;2022-08-20T01:43:44;92926.97;;;18.49;75.62
40592;BME280;26301;42.832;23.918;2022-08-20T01:46:11;92900.19;;;18.24;76.33
40592;BME280;26301;42.832;23.918;2022-08-20T01:48:40;92920.56;;;18.41;76.12
40592;BME280;26301;42.832;23.918;2022-08-20T01:53:42;92894.09;;;18.29;76.32
40592;BME280;26301;42.832;23.918;2022-08-20T01:56:12;92903.63;;;18.39;76.42
40592;BME280;26301;42.832;23.918;2022-08-20T01:58:41;92907.50;;;18.41;76.44
40592;BME280;26301;42.832;23.918;2022-08-20T02:03:50;92869.69;;;18.20;76.82
40592;BME280;26301;42.832;23.918;2022-08-20T02:06:16;92891.69;;;18.33;76.67
40592;BME280;26301;42.832;23.918;2022-08-20T02:08:42;92894.59;;;18.31;77.04
40592;BME280;26301;42.832;23.918;2022-08-20T02:11:09;92889.66;;;18.30;77.13
40592;BME280;26301;42.832;23.918;2022-08-20T02:13:35;92892.16;;;18.35;76.96
40592;BME280;26301;42.832;23.918;2022-08-20T02:16:01;92890.63;;;18.34;76.94
40592;BME280;26301;42.832;23.918;2022-08-20T02:18:27;92884.44;;;18.30;77.09
40592;BME280;26301;42.832;23.918;2022-08-20T02:20:53;92875.41;;;18.22;77.20
40592;BME280;26301;42.832;23.918;2022-08-20T02:23:19;92859.53;;;18.18;77.15
40592;BME280;26301;42.832;23.918;2022-08-20T02:25:45;92873.88;;;18.35;77.01
40592;BME280;26301;42.832;23.918;2022-08-20T02:28:14;92880.25;;;18.28;76.92
40592;BME280;26301;42.832;23.918;2022-08-20T02:30:44;92863.09;;;18.22;76.66
40592;BME280;26301;42.832;23.918;2022-08-20T02:33:15;92881.69;;;18.35;76.57
40592;BME280;26301;42.832;23.918;2022-08-20T02:35:43;92881.13;;;18.38;76.68
40592;BME280;26301;42.832;23.918;2022-08-20T02:38:10;92872.13;;;18.30;76.90
40592;BME280;26301;42.832;23.918;2022-08-20T02:40:36;92870.97;;;18.36;76.81
40592;BME280;26301;42.832;23.918;2022-08-20T02:43:03;92870.78;;;18.33;76.55
40592;BME280;26301;42.832;23.918;2022-08-20T02:45:31;92878.50;;;18.38;76.64
40592;BME280;26301;42.832;23.918;2022-08-20T02:48:01;92876.78;;;18.33;76.66
40592;BME280;26301;42.832;23.918;2022-08-20T02:50:28;92855.44;;;18.12;76.74
40592;BME280;26301;42.832;23.918;2022-08-20T02:52:55;92858.25;;;18.16;76.97
40592;BME280;26301;42.832;23.918;2022-08-20T02:55:22;92871.13;;;18.26;76.94
40592;BME280;26301;42.832;23.918;2022-08-20T02:57:48;92838.13;;;18.02;77.23
40592;BME280;26301;42.832;23.918;2022-08-20T03:00:17;92857.56;;;18.10;77.62
40592;BME280;26301;42.832;23.918;2022-08-20T03:02:43;92860.56;;;18.03;78.05
40592;BME280;26301;42.832;23.918;2022-08-20T03:05:10;92878.47;;;18.10;78.63
40592;BME280;26301;42.832;23.918;2022-08-20T03:07:48;92859.28;;;17.87;79.04
40592;BME280;26301;42.832;23.918;2022-08-20T03:10:14;92873.22;;;17.96;79.19
40592;BME280;26301;42.832;23.918;2022-08-20T03:12:41;92869.94;;;17.91;79.58
40592;BME280;26301;42.832;23.918;2022-08-20T03:15:09;92877.47;;;17.92;79.52
40592;BME280;26301;42.832;23.918;2022-08-20T03:17:35;92883.75;;;17.91;79.78
40592;BME280;26301;42.832;23.918;2022-08-20T03:20:05;92890.31;;;17.89;79.85
40592;BME280;26301;42.832;23.918;2022-08-20T03:22:32;92877.91;;;17.80;79.80
40592;BME280;26301;42.832;23.918;2022-08-20T03:24:58;92821.28;;;17.43;79.76
40592;BME280;26301;42.832;23.918;2022-08-20T03:27:24;92865.69;;;17.76;80.21
40592;BME280;26301;42.832;23.918;2022-08-20T03:29:50;92877.56;;;17.87;80.06
40592;BME280;26301;42.832;23.918;2022-08-20T03:32:16;92879.09;;;17.88;80.03
40592;BME280;26301;42.832;23.918;2022-08-20T03:34:42;92882.78;;;17.87;80.21
40592;BME280;26301;42.832;23.918;2022-08-20T03:37:08;92878.59;;;17.86;80.08
40592;BME280;26301;42.832;23.918;2022-08-20T03:39:36;92875.22;;;17.86;80.09
40592;BME280;26301;42.832;23.918;2022-08-20T03:42:03;92879.19;;;17.83;80.27
40592;BME280;26301;42.832;23.918;2022-08-20T03:44:29;92873.19;;;17.82;80.04
40592;BME280;26301;42.832;23.918;2022-08-20T03:46:55;92859.47;;;17.72;80.18
40592;BME280;26301;42.832;23.918;2022-08-20T03:49:21;92882.56;;;17.83;80.18
40592;BME280;26301;42.832;23.918;2022-08-20T03:51:49;92875.53;;;17.84;80.21
40592;BME280;26301;42.832;23.918;2022-08-20T03:54:15;92864.38;;;17.78;79.82
40592;BME280;26301;42.832;23.918;2022-08-20T03:56:41;92887.16;;;17.92;80.14
40592;BME280;26301;42.832;23.918;2022-08-20T03:59:07;92882.13;;;17.95;79.82
40592;BME280;26301;42.832;23.918;2022-08-20T04:01:34;92886.88;;;17.93;80.15
40592;BME280;26301;42.832;23.918;2022-08-20T04:04:00;92893.47;;;18.04;80.03
40592;BME280;26301;42.832;23.918;2022-08-20T04:06:26;92871.97;;;17.94;79.47
40592;BME280;26301;42.832;23.918;2022-08-20T04:08:55;92901.81;;;18.07;79.67
40592;BME280;26301;42.832;23.918;2022-08-20T04:11:22;92897.53;;;18.11;79.53
40592;BME280;26301;42.832;23.918;2022-08-20T04:13:48;92874.19;;;18.00;79.39
40592;BME280;26301;42.832;23.918;2022-08-20T04:16:14;92875.41;;;18.08;79.50
40592;BME280;26301;42.832;23.918;2022-08-20T04:18:40;92880.72;;;18.17;78.94
40592;BME280;26301;42.832;23.918;2022-08-20T04:21:06;92880.34;;;18.23;78.58
40592;BME280;26301;42.832;23.918;2022-08-20T04:23:32;92882.59;;;18.30;78.77
40592;BME280;26301;42.832;23.918;2022-08-20T04:25:58;92896.47;;;18.44;78.53
40592;BME280;26301;42.832;23.918;2022-08-20T04:28:26;92902.06;;;18.51;78.42
40592;BME280;26301;42.832;23.918;2022-08-20T04:30:58;92876.88;;;18.42;78.52
40592;BME280;26301;42.832;23.918;2022-08-20T04:33:25;92886.50;;;18.60;78.35
40592;BME280;26301;42.832;23.918;2022-08-20T04:35:53;92881.94;;;18.66;78.53
40592;BME280;26301;42.832;23.918;2022-08-20T04:38:22;92889.44;;;18.86;77.95
40592;BME280;26301;42.832;23.918;2022-08-20T04:40:48;92860.56;;;18.78;78.33
40592;BME280;26301;42.832;23.918;2022-08-20T04:45:53;92865.06;;;19.00;77.49
40592;BME280;26301;42.832;23.918;2022-08-20T04:48:20;92860.59;;;19.14;77.24
40592;BME280;26301;42.832;23.918;2022-08-20T04:50:51;92855.81;;;19.30;77.21
40592;BME280;26301;42.832;23.918;2022-08-20T04:53:20;92860.53;;;19.41;76.85
40592;BME280;26301;42.832;23.918;2022-08-20T04:55:49;92873.84;;;19.68;76.40
40592;BME280;26301;42.832;23.918;2022-08-20T04:58:42;92871.03;;;19.86;75.97
40592;BME280;26301;42.832;23.918;2022-08-20T05:01:19;92867.41;;;19.96;75.75
40592;BME280;26301;42.832;23.918;2022-08-20T05:03:46;92874.00;;;20.16;75.21
40592;BME280;26301;42.832;23.918;2022-08-20T05:06:13;92853.19;;;20.20;75.24
40592;BME280;26301;42.832;23.918;2022-08-20T05:08:40;92871.81;;;20.41;74.99
40592;BME280;26301;42.832;23.918;2022-08-20T05:11:07;92877.44;;;20.57;74.73
40592;BME280;26301;42.832;23.918;2022-08-20T05:13:36;92881.50;;;20.71;74.03
40592;BME280;26301;42.832;23.918;2022-08-20T05:16:03;92864.41;;;20.83;73.52
40592;BME280;26301;42.832;23.918;2022-08-20T05:18:30;92865.88;;;21.06;73.06
40592;BME280;26301;42.832;23.918;2022-08-20T05:21:01;92865.44;;;21.21;72.83
40592;BME280;26301;42.832;23.918;2022-08-20T05:23:33;92874.75;;;21.36;72.80
40592;BME280;26301;42.832;23.918;2022-08-20T05:26:00;92883.69;;;21.53;72.58
40592;BME280;26301;42.832;23.918;2022-08-20T05:28:29;92864.84;;;21.59;72.14
40592;BME280;26301;42.832;23.918;2022-08-20T05:30:59;92861.75;;;21.75;71.07
40592;BME280;26301;42.832;23.918;2022-08-20T05:33:26;92882.44;;;22.02;70.81
40592;BME280;26301;42.832;23.918;2022-08-20T05:35:54;92852.28;;;22.08;70.22
40592;BME280;26301;42.832;23.918;2022-08-20T05:38:24;92872.19;;;22.35;69.69
40592;BME280;26301;42.832;23.918;2022-08-20T05:40:52;92861.91;;;22.51;69.19
40592;BME280;26301;42.832;23.918;2022-08-20T05:43:21;92853.53;;;22.58;68.25
40592;BME280;26301;42.832;23.918;2022-08-20T05:45:47;92859.19;;;22.77;68.05
40592;BME280;26301;42.832;23.918;2022-08-20T05:48:19;92859.81;;;23.04;66.91
40592;BME280;26301;42.832;23.918;2022-08-20T05:50:48;92855.81;;;23.27;67.30
40592;BME280;26301;42.832;23.918;2022-08-20T05:53:15;92860.63;;;23.46;66.33
40592;BME280;26301;42.832;23.918;2022-08-20T05:55:42;92858.63;;;23.64;66.85
40592;BME280;26301;42.832;23.918;2022-08-20T05:58:15;92858.97;;;23.84;65.04
40592;BME280;26301;42.832;23.918;2022-08-20T06:00:45;92843.97;;;23.96;63.28
40592;BME280;26301;42.832;23.918;2022-08-20T06:03:19;92848.75;;;24.28;64.22
40592;BME280;26301;42.832;23.918;2022-08-20T06:06:07;92849.16;;;24.51;62.44
40592;BME280;26301;42.832;23.918;2022-08-20T06:08:43;92843.88;;;24.63;62.91
40592;BME280;26301;42.832;23.918;2022-08-20T06:11:12;92831.78;;;24.86;61.17
40592;BME280;26301;42.832;23.918;2022-08-20T06:13:55;92846.94;;;25.26;55.55
40592;BME280;26301;42.832;23.918;2022-08-20T06:16:28;92805.97;;;25.32;57.43
40592;BME280;26301;42.832;23.918;2022-08-20T06:18:59;92831.53;;;25.69;52.07
40592;BME280;26301;42.832;23.918;2022-08-20T06:21:26;92797.81;;;25.66;50.77
40592;BME280;26301;42.832;23.918;2022-08-20T06:23:54;92792.56;;;25.94;48.82
40592;BME280;26301;42.832;23.918;2022-08-20T06:26:26;92807.09;;;26.32;48.78
40592;BME280;26301;42.832;23.918;2022-08-20T06:28:53;92842.22;;;26.76;48.24
40592;BME280;26301;42.832;23.918;2022-08-20T06:31:25;92827.44;;;26.91;47.79
40592;BME280;26301;42.832;23.918;2022-08-20T06:33:54;92796.75;;;26.90;47.73
40592;BME280;26301;42.832;23.918;2022-08-20T06:36:20;92844.53;;;27.45;45.47
40592;BME280;26301;42.832;23.918;2022-08-20T06:38:46;92828.03;;;27.55;45.78
40592;BME280;26301;42.832;23.918;2022-08-20T06:41:12;92828.81;;;27.75;45.45
40592;BME280;26301;42.832;23.918;2022-08-20T06:43:38;92831.00;;;27.89;44.92
40592;BME280;26301;42.832;23.918;2022-08-20T06:46:05;92842.84;;;28.14;45.09
40592;BME280;26301;42.832;23.918;2022-08-20T06:48:32;92841.28;;;28.33;43.56
40592;BME280;26301;42.832;23.918;2022-08-20T06:50:58;92835.81;;;28.45;44.67
40592;BME280;26301;42.832;23.918;2022-08-20T06:53:33;92788.59;;;28.35;42.01
40592;BME280;26301;42.832;23.918;2022-08-20T06:56:00;92837.41;;;28.72;43.24
40592;BME280;26301;42.832;23.918;2022-08-20T06:58:26;92802.16;;;28.76;42.22
40592;BME280;26301;42.832;23.918;2022-08-20T07:00:55;92844.63;;;29.22;41.92
40592;BME280;26301;42.832;23.918;2022-08-20T07:03:21;92841.97;;;29.22;41.18
40592;BME280;26301;42.832;23.918;2022-08-20T07:05:47;92849.78;;;29.37;41.55
40592;BME280;26301;42.832;23.918;2022-08-20T07:08:14;92830.47;;;29.44;42.23
40592;BME280;26301;42.832;23.918;2022-08-20T07:10:44;92846.16;;;29.79;40.71
40592;BME280;26301;42.832;23.918;2022-08-20T07:13:11;92843.06;;;29.77;41.36
40592;BME280;26301;42.832;23.918;2022-08-20T07:15:38;92834.78;;;29.82;40.56
40592;BME280;26301;42.832;23.918;2022-08-20T07:18:04;92834.94;;;29.97;40.99
40592;BME280;26301;42.832;23.918;2022-08-20T07:20:33;92835.97;;;30.22;39.00
40592;BME280;26301;42.832;23.918;2022-08-20T07:23:00;92840.00;;;30.46;38.91
40592;BME280;26301;42.832;23.918;2022-08-20T07:25:27;92817.63;;;30.51;39.52
40592;BME280;26301;42.832;23.918;2022-08-20T07:27:59;92821.91;;;30.63;37.49
40592;BME280;26301;42.832;23.918;2022-08-20T07:30:26;92837.69;;;30.86;37.18
40592;BME280;26301;42.832;23.918;2022-08-20T07:33:11;92828.56;;;30.87;37.49
40592;BME280;26301;42.832;23.918;2022-08-20T07:35:40;92816.06;;;30.94;36.65
40592;BME280;26301;42.832;23.918;2022-08-20T07:38:13;92821.50;;;31.09;37.46
40592;BME280;26301;42.832;23.918;2022-08-20T07:40:43;92817.69;;;31.13;37.15
40592;BME280;26301;42.832;23.918;2022-08-20T07:43:09;92824.56;;;31.14;36.69
40592;BME280;26301;42.832;23.918;2022-08-20T07:45:35;92812.78;;;31.23;35.92
40592;BME280;26301;42.832;23.918;2022-08-20T07:48:10;92805.28;;;31.35;36.14
40592;BME280;26301;42.832;23.918;2022-08-20T07:50:37;92819.09;;;31.55;35.54
40592;BME280;26301;42.832;23.918;2022-08-20T07:53:07;92820.66;;;31.67;35.00
40592;BME280;26301;42.832;23.918;2022-08-20T07:55:34;92799.34;;;31.74;35.25
40592;BME280;26301;42.832;23.918;2022-08-20T07:58:10;92806.63;;;31.88;34.69
40592;BME280;26301;42.832;23.918;2022-08-20T08:00:37;92809.78;;;32.04;33.03
40592;BME280;26301;42.832;23.918;2022-08-20T08:03:03;92803.69;;;32.11;33.35
40592;BME280;26301;42.832;23.918;2022-08-20T08:05:32;92802.16;;;32.28;32.98
40592;BME280;26301;42.832;23.918;2022-08-20T08:08:02;92788.44;;;32.26;32.67
40592;BME280;26301;42.832;23.918;2022-08-20T08:10:28;92782.34;;;32.25;32.52
40592;BME280;26301;42.832;23.918;2022-08-20T08:12:59;92786.53;;;32.23;32.54
40592;BME280;26301;42.832;23.918;2022-08-20T08:15:29;92798.00;;;32.38;32.63
40592;BME280;26301;42.832;23.918;2022-08-20T08:18:08;92784.63;;;32.27;31.57
40592;BME280;26301;42.832;23.918;2022-08-20T08:20:38;92788.44;;;32.29;32.47
40592;BME280;26301;42.832;23.918;2022-08-20T08:23:07;92775.84;;;32.23;31.90
40592;BME280;26301;42.832;23.918;2022-08-20T08:25:42;92771.25;;;32.30;32.25
40592;BME280;26301;42.832;23.918;2022-08-20T08:28:08;92773.22;;;32.48;32.59
40592;BME280;26301;42.832;23.918;2022-08-20T08:30:42;92790.00;;;32.70;31.30
40592;BME280;26301;42.832;23.918;2022-08-20T08:33:26;92787.34;;;32.77;30.83
40592;BME280;26301;42.832;23.918;2022-08-20T08:36:02;92776.63;;;32.88;31.26
40592;BME280;26301;42.832;23.918;2022-08-20T08:38:31;92783.13;;;32.83;29.41
40592;BME280;26301;42.832;23.918;2022-08-20T08:43:37;92778.16;;;32.99;28.87
40592;BME280;26301;42.832;23.918;2022-08-20T08:46:05;92768.97;;;32.97;28.54
40592;BME280;26301;42.832;23.918;2022-08-20T08:48:39;92774.34;;;33.08;28.57
40592;BME280;26301;42.832;23.918;2022-08-20T08:51:10;92772.81;;;32.99;28.41
40592;BME280;26301;42.832;23.918;2022-08-20T08:53:43;92772.81;;;33.07;26.81
40592;BME280;26301;42.832;23.918;2022-08-20T08:56:10;92759.03;;;32.97;27.18
40592;BME280;26301;42.832;23.918;2022-08-20T08:58:40;92773.94;;;33.13;28.28
40592;BME280;26301;42.832;23.918;2022-08-20T09:01:16;92780.78;;;33.21;27.84
40592;BME280;26301;42.832;23.918;2022-08-20T09:03:45;92783.47;;;33.17;28.72
40592;BME280;26301;42.832;23.918;2022-08-20T09:06:14;92785.41;;;33.17;29.15
40592;BME280;26301;42.832;23.918;2022-08-20T09:08:51;92762.06;;;33.21;29.45
40592;BME280;26301;42.832;23.918;2022-08-20T09:11:20;92778.06;;;33.35;28.91
40592;BME280;26301;42.832;23.918;2022-08-20T09:13:46;92781.88;;;33.41;29.24
40592;BME280;26301;42.832;23.918;2022-08-20T09:16:13;92766.63;;;33.35;28.52
40592;BME280;26301;42.832;23.918;2022-08-20T09:18:39;92778.41;;;33.48;28.65
40592;BME280;26301;42.832;23.918;2022-08-20T09:21:06;92790.28;;;33.58;28.42
40592;BME280;26301;42.832;23.918;2022-08-20T09:23:33;92763.53;;;33.51;27.47
40592;BME280;26301;42.832;23.918;2022-08-20T09:25:59;92776.13;;;33.61;27.90
40592;BME280;26301;42.832;23.918;2022-08-20T09:28:38;92768.47;;;33.59;29.16
40592;BME280;26301;42.832;23.918;2022-08-20T09:31:04;92770.00;;;33.53;30.66
40592;BME280;26301;42.832;23.918;2022-08-20T09:33:30;92765.81;;;33.56;30.75
40592;BME280;26301;42.832;23.918;2022-08-20T09:35:57;92770.78;;;33.46;30.92
40592;BME280;26301;42.832;23.918;2022-08-20T09:38:23;92769.72;;;33.19;30.42
40592;BME280;26301;42.832;23.918;2022-08-20T09:40:49;92766.34;;;33.00;30.98
40592;BME280;26301;42.832;23.918;2022-08-20T09:43:15;92767.09;;;33.01;32.16
40592;BME280;26301;42.832;23.918;2022-08-20T09:45:41;92775.09;;;32.94;32.88
40592;BME280;26301;42.832;23.918;2022-08-20T09:48:08;92770.13;;;32.92;32.38
40592;BME280;26301;42.832;23.918;2022-08-20T09:50:36;92769.72;;;32.94;33.31
40592;BME280;26301;42.832;23.918;2022-08-20T09:53:05;92781.59;;;33.11;32.04
40592;BME280;26301;42.832;23.918;2022-08-20T09:55:33;92779.28;;;33.13;31.87
40592;BME280;26301;42.832;23.918;2022-08-20T09:58:05;92762.47;;;33.09;32.54
40592;BME280;26301;42.832;23.918;2022-08-20T10:00:33;92755.94;;;33.20;31.82
40592;BME280;26301;42.832;23.918;2022-08-20T10:02:58;92756.69;;;33.32;31.84
40592;BME280;26301;42.832;23.918;2022-08-20T10:05:27;92755.91;;;33.35;30.62
40592;BME280;26301;42.832;23.918;2022-08-20T10:07:53;92771.19;;;33.38;31.97
40592;BME280;26301;42.832;23.918;2022-08-20T10:10:19;92764.66;;;33.42;30.43
40592;BME280;26301;42.832;23.918;2022-08-20T10:12:44;92758.56;;;33.42;31.74
40592;BME280;26301;42.832;23.918;2022-08-20T10:15:12;92771.56;;;33.36;31.70
40592;BME280;26301;42.832;23.918;2022-08-20T10:17:39;92749.44;;;33.25;31.58
40592;BME280;26301;42.832;23.918;2022-08-20T10:20:08;92779.94;;;33.45;31.81
40592;BME280;26301;42.832;23.918;2022-08-20T10:22:36;92776.91;;;33.58;31.55
40592;BME280;26301;42.832;23.918;2022-08-20T10:25:03;92768.84;;;33.61;31.45
40592;BME280;26301;42.832;23.918;2022-08-20T10:27:30;92765.78;;;33.59;31.49
40592;BME280;26301;42.832;23.918;2022-08-20T10:29:57;92765.69;;;33.81;31.52
40592;BME280;26301;42.832;23.918;2022-08-20T10:32:24;92747.34;;;33.76;29.69
40592;BME280;26301;42.832;23.918;2022-08-20T10:34:50;92754.59;;;33.82;29.83
40592;BME280;26301;42.832;23.918;2022-08-20T10:37:19;92745.41;;;33.83;31.27
40592;BME280;26301;42.832;23.918;2022-08-20T10:39:46;92748.41;;;33.92;30.27
40592;BME280;26301;42.832;23.918;2022-08-20T10:42:12;92762.13;;;34.02;31.17
40592;BME280;26301;42.832;23.918;2022-08-20T10:44:39;92748.34;;;34.00;30.88
40592;BME280;26301;42.832;23.918;2022-08-20T10:47:33;92759.75;;;34.22;29.97
40592;BME280;26301;42.832;23.918;2022-08-20T10:50:02;92740.56;;;34.23;30.00
40592;BME280;26301;42.832;23.918;2022-08-20T10:52:29;92746.84;;;34.06;29.67
40592;BME280;26301;42.832;23.918;2022-08-20T10:54:56;92744.06;;;34.17;30.62
40592;BME280;26301;42.832;23.918;2022-08-20T10:57:25;92742.28;;;34.48;30.34
40592;BME280;26301;42.832;23.918;2022-08-20T10:59:53;92739.22;;;34.49;30.61
40592;BME280;26301;42.832;23.918;2022-08-20T11:02:20;92745.34;;;34.50;29.07
40592;BME280;26301;42.832;23.918;2022-08-20T11:04:47;92739.53;;;34.62;28.65
40592;BME280;26301;42.832;23.918;2022-08-20T11:09:46;92738.34;;;34.67;28.85
40592;BME280;26301;42.832;23.918;2022-08-20T11:12:13;92722.28;;;34.67;29.20
40592;BME280;26301;42.832;23.918;2022-08-20T11:14:39;92718.84;;;34.63;29.40
40592;BME280;26301;42.832;23.918;2022-08-20T11:17:06;92730.56;;;34.79;29.60
40592;BME280;26301;42.832;23.918;2022-08-20T11:19:37;92723.28;;;34.80;29.89
40592;BME280;26301;42.832;23.918;2022-08-20T11:22:03;92699.50;;;34.82;30.21
40592;BME280;26301;42.832;23.918;2022-08-20T11:24:30;92733.22;;;35.24;28.77
40592;BME280;26301;42.832;23.918;2022-08-20T11:26:56;92711.44;;;35.15;28.20
40592;BME280;26301;42.832;23.918;2022-08-20T11:29:22;92731.88;;;35.40;29.00
40592;BME280;26301;42.832;23.918;2022-08-20T11:31:50;92731.50;;;35.38;28.31
40592;BME280;26301;42.832;23.918;2022-08-20T11:34:17;92714.91;;;35.46;27.60
40592;BME280;26301;42.832;23.918;2022-08-20T11:36:44;92721.34;;;35.56;28.29
40592;BME280;26301;42.832;23.918;2022-08-20T11:39:11;92702.53;;;35.56;29.43
40592;BME280;26301;42.832;23.918;2022-08-20T11:41:37;92700.44;;;35.71;28.49
40592;BME280;26301;42.832;23.918;2022-08-20T11:44:03;92691.47;;;35.54;27.79
40592;BME280;26301;42.832;23.918;2022-08-20T11:46:30;92693.97;;;35.68;28.23
40592;BME280;26301;42.832;23.918;2022-08-20T11:49:05;92697.09;;;35.90;25.81
40592;BME280;26301;42.832;23.918;2022-08-20T11:51:32;92693.25;;;35.91;27.11
40592;BME280;26301;42.832;23.918;2022-08-20T11:53:58;92699.22;;;35.76;26.51
40592;BME280;26301;42.832;23.918;2022-08-20T11:56:27;92681.88;;;35.49;26.38
40592;BME280;26301;42.832;23.918;2022-08-20T11:58:53;92689.28;;;35.42;27.90
40592;BME280;26301;42.832;23.918;2022-08-20T12:01:19;92687.41;;;35.39;27.49
40592;BME280;26301;42.832;23.918;2022-08-20T12:03:46;92690.16;;;35.32;27.16
40592;BME280;26301;42.832;23.918;2022-08-20T12:06:13;92665.84;;;35.15;26.35
40592;BME280;26301;42.832;23.918;2022-08-20T12:08:43;92670.13;;;35.09;27.19
40592;BME280;26301;42.832;23.918;2022-08-20T12:11:09;92676.63;;;35.12;25.98
40592;BME280;26301;42.832;23.918;2022-08-20T12:13:36;92672.38;;;35.11;26.10
40592;BME280;26301;42.832;23.918;2022-08-20T12:16:03;92678.59;;;35.04;28.11
40592;BME280;26301;42.832;23.918;2022-08-20T12:18:34;92672.59;;;34.89;26.98
40592;BME280;26301;42.832;23.918;2022-08-20T12:21:01;92665.06;;;34.77;27.57
40592;BME280;26301;42.832;23.918;2022-08-20T12:23:27;92672.47;;;35.03;26.58
40592;BME280;26301;42.832;23.918;2022-08-20T12:25:53;92655.66;;;34.99;27.27
40592;BME280;26301;42.832;23.918;2022-08-20T12:28:19;92654.91;;;34.95;27.07
40592;BME280;26301;42.832;23.918;2022-08-20T12:30:46;92666.56;;;34.81;27.06
40592;BME280;26301;42.832;23.918;2022-08-20T12:33:12;92652.19;;;34.65;26.64
40592;BME280;26301;42.832;23.918;2022-08-20T12:35:39;92666.28;;;34.69;26.76
40592;BME280;26301;42.832;23.918;2022-08-20T12:38:06;92643.91;;;34.45;26.64
40592;BME280;26301;42.832;23.918;2022-08-20T12:40:32;92659.97;;;34.45;28.67
40592;BME280;26301;42.832;23.918;2022-08-20T12:43:00;92657.38;;;34.37;26.57
40592;BME280;26301;42.832;23.918;2022-08-20T12:45:26;92629.59;;;34.17;26.94
40592;BME280;26301;42.832;23.918;2022-08-20T12:48:09;92654.16;;;34.12;27.90
40592;BME280;26301;42.832;23.918;2022-08-20T12:50:37;92655.47;;;33.86;26.86
40592;BME280;26301;42.832;23.918;2022-08-20T12:53:06;92658.91;;;33.86;27.10
40592;BME280;26301;42.832;23.918;2022-08-20T12:55:33;92659.38;;;33.74;27.96
40592;BME280;26301;42.832;23.918;2022-08-20T12:58:06;92625.41;;;33.60;27.32
40592;BME280;26301;42.832;23.918;2022-08-20T13:00:38;92656.72;;;33.71;26.91
40592;BME280;26301;42.832;23.918;2022-08-20T13:03:06;92643.06;;;33.51;27.78
40592;BME280;26301;42.832;23.918;2022-08-20T13:05:33;92628.94;;;33.39;27.15
40592;BME280;26301;42.832;23.918;2022-08-20T13:08:04;92623.25;;;33.34;28.05
40592;BME280;26301;42.832;23.918;2022-08-20T13:10:34;92642.31;;;33.46;28.21
40592;BME280;26301;42.832;23.918;2022-08-20T13:13:01;92620.53;;;33.41;27.47